Time;durP1;ratioP1;P1;durP2;ratioP2;P2;SDS_P1;SDS_P2;PMS_P1;PMS_P2;Temp;Humidity;BMP_temperature;BMP_pressure;BME280_temperature;BME280_humidity;BME280_pressure;Samples;Min_cycle;Max_cycle;Signal;HPM_P1;HPM_P2
2022/09/07 00:00:38;;;;;;;2.90;2.70;;;;;;;;;;5072349;28;20528;-68
2022/09/07 00:03:05;;;;;;;2.50;1.87;;;;;;;;;;5071932;28;20469;-69
2022/09/07 00:05:33;;;;;;;2.83;1.83;;;;;;;;;;5071969;28;20964;-68
2022/09/07 00:08:00;;;;;;;2.40;2.17;;;;;;;;;;5071888;28;20487;-68
2022/09/07 00:10:27;;;;;;;1.97;1.60;;;;;;;;;;5072770;28;20438;-68
2022/09/07 00:12:56;;;;;;;2.10;1.80;;;;;;;;;;5072256;28;20437;-68
2022/09/07 00:15:23;;;;;;;2.83;2.60;;;;;;;;;;5072068;28;20521;-69
2022/09/07 00:17:51;;;;;;;6.33;1.37;;;;;;;;;;5072814;28;20454;-68
2022/09/07 00:20:18;;;;;;;1.73;1.57;;;;;;;;;;5072143;28;20453;-68
2022/09/07 00:22:45;;;;;;;2.47;1.87;;;;;;;;;;5071949;28;20529;-69
2022/09/07 00:25:13;;;;;;;1.60;1.30;;;;;;;;;;5070494;28;20461;-68
2022/09/07 00:27:40;;;;;;;1.40;1.30;;;;;;;;;;5071981;28;20500;-68
2022/09/07 00:30:09;;;;;;;3.73;1.90;;;;;;;;;;5071490;28;20860;-68
2022/09/07 00:32:37;;;;;;;1.70;1.37;;;;;;;;;;5071843;28;20525;-69
2022/09/07 00:35:04;;;;;;;2.30;1.83;;;;;;;;;;5071025;28;20541;-68
2022/09/07 00:37:31;;;;;;;3.93;1.80;;;;;;;;;;5072277;28;20517;-68
2022/09/07 00:39:58;;;;;;;1.67;1.50;;;;;;;;;;5065717;28;20529;-68
2022/09/07 00:42:25;;;;;;;2.53;1.73;;;;;;;;;;5071864;28;20521;-68
2022/09/07 00:44:59;;;;;;;1.40;1.30;;;;;;;;;;5070385;28;20481;-69
2022/09/07 00:47:30;;;;;;;2.33;1.47;;;;;;;;;;5071591;28;20548;-68
2022/09/07 00:49:59;;;;;;;2.37;2.17;;;;;;;;;;5071141;28;20481;-68
2022/09/07 00:52:27;;;;;;;1.70;1.60;;;;;;;;;;5071377;28;20437;-68
2022/09/07 00:54:56;;;;;;;3.53;2.63;;;;;;;;;;5070426;28;20530;-68
2022/09/07 00:57:23;;;;;;;3.20;1.47;;;;;;;;;;5071741;28;20446;-68
2022/09/07 00:59:51;;;;;;;2.27;1.40;;;;;;;;;;5071544;28;20872;-68
2022/09/07 01:02:19;;;;;;;1.40;1.30;;;;;;;;;;5070707;28;20524;-68
2022/09/07 01:04:49;;;;;;;1.60;1.50;;;;;;;;;;5070974;28;20544;-68
2022/09/07 01:07:17;;;;;;;2.93;1.50;;;;;;;;;;5071643;28;20493;-68
2022/09/07 01:09:46;;;;;;;2.13;1.60;;;;;;;;;;5071462;28;20444;-69
2022/09/07 01:12:13;;;;;;;2.20;1.50;;;;;;;;;;5070653;28;20438;-68
2022/09/07 01:14:41;;;;;;;3.67;1.47;;;;;;;;;;5070585;28;20836;-68
2022/09/07 01:17:11;;;;;;;2.73;1.27;;;;;;;;;;5070839;28;20525;-68
2022/09/07 01:19:48;;;;;;;2.47;1.40;;;;;;;;;;5071033;28;20446;-68
2022/09/07 01:22:25;;;;;;;2.30;1.30;;;;;;;;;;5058333;28;20498;-68
2022/09/07 01:24:59;;;;;;;2.37;1.63;;;;;;;;;;5070087;28;20528;-69
2022/09/07 01:27:37;;;;;;;2.00;1.20;;;;;;;;;;5070929;28;20555;-68
2022/09/07 01:30:06;;;;;;;2.00;1.10;;;;;;;;;;5069969;28;20532;-69
2022/09/07 01:32:41;;;;;;;3.10;1.27;;;;;;;;;;5071042;28;20532;-68
2022/09/07 01:35:11;;;;;;;1.90;1.27;;;;;;;;;;5065808;28;20540;-68
2022/09/07 01:37:41;;;;;;;2.00;1.40;;;;;;;;;;5069692;28;20536;-68
2022/09/07 01:40:11;;;;;;;4.90;1.63;;;;;;;;;;5070403;28;20437;-68
2022/09/07 01:42:45;;;;;;;2.43;1.23;;;;;;;;;;5070524;28;20445;-68
2022/09/07 01:45:13;;;;;;;3.90;1.37;;;;;;;;;;5066648;28;20810;-68
2022/09/07 01:47:43;;;;;;;1.77;1.60;;;;;;;;;;5070601;28;20597;-68
2022/09/07 01:50:13;;;;;;;1.90;1.53;;;;;;;;;;5070239;28;21023;-68
2022/09/07 01:52:42;;;;;;;1.40;1.10;;;;;;;;;;5070242;28;20940;-69
2022/09/07 01:55:13;;;;;;;1.90;1.70;;;;;;;;;;5070020;28;20488;-68
2022/09/07 01:57:43;;;;;;;2.43;1.50;;;;;;;;;;5070425;28;20460;-69
2022/09/07 02:00:12;;;;;;;2.17;1.40;;;;;;;;;;5070015;28;20477;-68
2022/09/07 02:02:41;;;;;;;1.13;1.03;;;;;;;;;;5057820;28;21027;-69
2022/09/07 02:05:11;;;;;;;2.97;1.73;;;;;;;;;;5069479;28;20872;-69
2022/09/07 02:07:40;;;;;;;2.33;1.30;;;;;;;;;;5075482;28;20475;-69
2022/09/07 02:10:11;;;;;;;1.30;1.03;;;;;;;;;;5090132;28;20561;-69
2022/09/07 02:12:44;;;;;;;7.60;1.23;;;;;;;;;;5090687;28;20838;-69
2022/09/07 02:15:14;;;;;;;2.10;1.30;;;;;;;;;;5089949;28;21056;-69
2022/09/07 02:17:43;;;;;;;2.23;1.10;;;;;;;;;;5090947;28;20556;-69
2022/09/07 02:20:12;;;;;;;2.23;1.60;;;;;;;;;;5089997;28;20533;-69
2022/09/07 02:22:40;;;;;;;3.37;1.67;;;;;;;;;;5090699;28;20524;-69
2022/09/07 02:25:08;;;;;;;2.13;1.80;;;;;;;;;;5089648;28;20544;-69
2022/09/07 02:27:39;;;;;;;4.83;1.47;;;;;;;;;;5090266;28;20974;-68
2022/09/07 02:30:07;;;;;;;2.47;1.50;;;;;;;;;;5089932;28;20440;-69
2022/09/07 02:32:35;;;;;;;1.50;1.30;;;;;;;;;;5090430;28;20441;-68
2022/09/07 02:35:02;;;;;;;2.30;1.50;;;;;;;;;;5089907;28;20859;-68
2022/09/07 02:37:30;;;;;;;1.37;1.10;;;;;;;;;;5090545;28;20531;-68
2022/09/07 02:39:59;;;;;;;1.70;1.40;;;;;;;;;;5089688;28;20452;-68
2022/09/07 02:42:26;;;;;;;3.90;1.70;;;;;;;;;;5090424;28;20447;-69
2022/09/07 02:44:53;;;;;;;1.77;1.50;;;;;;;;;;5085065;28;20867;-69
2022/09/07 02:47:30;;;;;;;2.23;1.70;;;;;;;;;;5090804;28;20448;-69
2022/09/07 02:50:12;;;;;;;1.27;1.17;;;;;;;;;;5093390;28;20441;-69
2022/09/07 02:52:44;;;;;;;1.97;1.27;;;;;;;;;;5094580;28;20441;-69
2022/09/07 02:55:16;;;;;;;2.60;1.40;;;;;;;;;;5093275;28;20956;-68
2022/09/07 02:57:47;;;;;;;1.93;1.47;;;;;;;;;;5093707;28;20473;-68
2022/09/07 03:00:17;;;;;;;2.73;1.80;;;;;;;;;;5092589;28;20508;-69
2022/09/07 03:02:51;;;;;;;2.10;1.50;;;;;;;;;;5094018;28;20461;-69
2022/09/07 03:05:22;;;;;;;2.80;1.20;;;;;;;;;;5093413;28;21002;-69
2022/09/07 03:07:53;;;;;;;1.73;1.30;;;;;;;;;;5094168;28;20512;-69
2022/09/07 03:10:20;;;;;;;2.00;1.47;;;;;;;;;;5094280;28;20472;-69
2022/09/07 03:12:48;;;;;;;1.83;1.30;;;;;;;;;;5093781;28;20519;-69
2022/09/07 03:15:17;;;;;;;2.73;1.60;;;;;;;;;;5092957;28;20834;-69
2022/09/07 03:17:45;;;;;;;2.33;1.40;;;;;;;;;;5093404;28;20775;-69
2022/09/07 03:20:12;;;;;;;4.60;1.97;;;;;;;;;;5093354;28;20460;-68
2022/09/07 03:22:41;;;;;;;1.70;1.60;;;;;;;;;;5094068;28;20521;-69
2022/09/07 03:25:08;;;;;;;3.10;1.70;;;;;;;;;;5092548;28;20533;-68
2022/09/07 03:27:36;;;;;;;2.07;1.60;;;;;;;;;;5092871;28;20563;-69
2022/09/07 03:30:03;;;;;;;3.83;2.23;;;;;;;;;;5092388;28;20528;-69
2022/09/07 03:32:31;;;;;;;2.00;1.57;;;;;;;;;;5093270;28;20520;-68
2022/09/07 03:34:58;;;;;;;1.40;1.30;;;;;;;;;;5092726;28;20448;-68
2022/09/07 03:37:26;;;;;;;1.50;1.40;;;;;;;;;;5093403;28;20441;-68
2022/09/07 03:39:54;;;;;;;3.73;1.77;;;;;;;;;;5093103;28;20532;-69
2022/09/07 03:42:22;;;;;;;2.33;1.83;;;;;;;;;;5093654;28;20447;-68
2022/09/07 03:44:49;;;;;;;2.63;1.60;;;;;;;;;;5092588;28;20524;-69
2022/09/07 03:47:17;;;;;;;2.47;1.83;;;;;;;;;;5093445;28;20444;-68
2022/09/07 03:49:44;;;;;;;6.73;3.80;;;;;;;;;;5092569;28;20552;-68
2022/09/07 03:52:11;;;;;;;2.10;1.63;;;;;;;;;;5092945;28;21154;-69
2022/09/07 03:54:38;;;;;;;3.43;1.97;;;;;;;;;;5092833;28;20471;-70
2022/09/07 03:57:07;;;;;;;2.40;2.10;;;;;;;;;;5092605;28;20449;-68
2022/09/07 03:59:34;;;;;;;2.07;1.43;;;;;;;;;;5092817;28;20433;-68
2022/09/07 04:02:02;;;;;;;2.50;1.70;;;;;;;;;;5092233;28;20445;-68
2022/09/07 04:04:29;;;;;;;2.03;1.83;;;;;;;;;;5092879;28;20540;-68
2022/09/07 04:06:56;;;;;;;6.13;2.27;;;;;;;;;;5092279;28;20760;-68
2022/09/07 04:09:23;;;;;;;2.10;1.80;;;;;;;;;;5093511;28;20498;-69
2022/09/07 04:11:50;;;;;;;3.53;1.50;;;;;;;;;;5092999;28;20441;-69
2022/09/07 04:14:19;;;;;;;2.70;1.80;;;;;;;;;;5093092;28;20464;-69
2022/09/07 04:16:46;;;;;;;1.97;1.40;;;;;;;;;;5092138;28;20543;-69
2022/09/07 04:19:14;;;;;;;3.60;2.13;;;;;;;;;;5092307;28;20472;-69
2022/09/07 04:21:43;;;;;;;3.50;2.00;;;;;;;;;;5092571;28;20576;-69
2022/09/07 04:24:11;;;;;;;3.50;1.70;;;;;;;;;;5087797;28;20843;-69
2022/09/07 04:26:38;;;;;;;2.20;2.00;;;;;;;;;;5092297;28;20503;-69
2022/09/07 04:29:05;;;;;;;3.10;2.10;;;;;;;;;;5090043;28;20488;-69
2022/09/07 04:31:35;;;;;;;2.67;1.90;;;;;;;;;;5089852;28;20465;-69
2022/09/07 04:34:02;;;;;;;2.30;1.70;;;;;;;;;;5083167;28;20522;-69
2022/09/07 04:36:30;;;;;;;2.97;2.60;;;;;;;;;;5092409;28;20635;-70
2022/09/07 04:38:58;;;;;;;2.30;1.90;;;;;;;;;;5092217;28;20468;-70
2022/09/07 04:41:25;;;;;;;3.37;2.13;;;;;;;;;;5092223;28;20443;-69
2022/09/07 04:43:54;;;;;;;3.07;1.90;;;;;;;;;;5091609;28;21003;-70
2022/09/07 04:46:22;;;;;;;3.43;1.50;;;;;;;;;;5091976;28;20935;-70
2022/09/07 04:48:51;;;;;;;2.10;1.50;;;;;;;;;;5092429;28;20797;-70
2022/09/07 04:51:19;;;;;;;5.23;1.80;;;28.60;57.90;;;;;;5091580;28;20437;-70
2022/09/07 04:53:48;;;;;;;1.63;1.53;;;18.60;99.90;;;;;;5092369;28;20520;-70
2022/09/07 04:56:16;;;;;;;2.60;1.80;;;18.40;99.90;;;;;;5078610;28;20515;-70
2022/09/07 04:58:43;;;;;;;2.60;1.90;;;18.30;99.90;;;;;;5092018;28;20468;-69
2022/09/07 05:01:10;;;;;;;2.33;2.00;;;18.30;99.90;;;;;;5091105;28;20525;-70
2022/09/07 05:03:38;;;;;;;2.97;1.70;;;18.10;99.90;;;;;;5092015;28;20524;-70
2022/09/07 05:06:07;;;;;;;3.13;2.40;;;18.10;99.90;;;;;;5091308;28;20544;-70
2022/09/07 05:08:36;;;;;;;3.97;2.20;;;18.10;99.90;;;;;;5091936;28;20563;-69
2022/09/07 05:11:04;;;;;;;2.90;1.90;;;18.10;99.90;;;;;;5091026;28;20871;-69
2022/09/07 05:13:31;;;;;;;2.57;2.13;;;18.10;99.90;;;;;;5091486;28;20527;-70
2022/09/07 05:15:58;;;;;;;3.10;2.00;;;18.00;99.90;;;;;;5091149;28;20448;-70
2022/09/07 05:18:25;;;;;;;2.73;2.53;;;18.00;99.90;;;;;;5091416;28;20947;-70
2022/09/07 05:20:52;;;;;;;2.10;1.90;;;18.00;99.90;;;;;;5090593;28;20448;-70
2022/09/07 05:23:23;;;;;;;7.10;2.20;;;;;;;;;;5091571;28;20541;-69
2022/09/07 05:25:50;;;;;;;3.17;2.27;;;;;;;;;;5091779;28;20433;-70
2022/09/07 05:28:17;;;;;;;2.33;2.03;;;;;;;;;;5091920;28;20531;-70
2022/09/07 05:30:45;;;;;;;2.63;2.13;;;;;;;;;;5091047;28;20523;-70
2022/09/07 05:33:12;;;;;;;7.70;2.23;;;;;;;;;;5090629;28;20456;-70
2022/09/07 05:35:39;;;;;;;3.60;2.23;;;;;;;;;;5091588;28;20544;-70
2022/09/07 05:38:06;;;;;;;3.00;2.13;;;;;;;;;;5090604;28;20472;-70
2022/09/07 05:40:35;;;;;;;3.10;2.13;;;;;;;;;;5090928;28;20527;-70
2022/09/07 05:43:02;;;;;;;3.10;2.23;;;;;;;;;;5090849;28;20553;-70
2022/09/07 05:45:30;;;;;;;2.63;2.13;;;;;;;;;;5091235;28;20479;-70
2022/09/07 05:47:57;;;;;;;2.40;1.77;;;;;;;;;;5090867;28;20524;-70
2022/09/07 05:50:24;;;;;;;2.57;2.20;;;;;;;;;;5090606;28;20975;-70
2022/09/07 05:52:51;;;;;;;4.23;2.20;;;;;;;;;;5090710;28;20531;-74
2022/09/07 05:55:18;;;;;;;2.37;2.17;;;;;;;;;;5091406;28;20468;-70
2022/09/07 05:57:47;;;;;;;2.60;2.07;;;;;;;;;;5091428;28;20519;-70
2022/09/07 06:00:14;;;;;;;2.70;2.50;;;;;;;;;;5090407;28;20487;-70
2022/09/07 06:02:41;;;;;;;2.80;1.80;;;;;;;;;;5090578;28;21094;-70
2022/09/07 06:05:10;;;;;;;2.70;1.60;;;;;;;;;;5090419;28;20546;-70
2022/09/07 06:07:38;;;;;;;4.33;3.50;;;;;;;;;;5091009;28;20440;-71
2022/09/07 06:10:05;;;;;;;2.30;2.10;;;;;;;;;;5090242;28;20476;-70
2022/09/07 06:12:32;;;;;;;2.97;1.93;;;;;;;;;;5086031;28;20520;-70
2022/09/07 06:15:01;;;;;;;3.20;1.90;;;;;;;;;;5090295;28;20523;-70
2022/09/07 06:17:29;;;;;;;2.13;1.93;;;;;;;;;;5077627;28;20864;-71
2022/09/07 06:19:57;;;;;;;1.97;1.80;;;;;;;;;;5090404;28;20436;-71
2022/09/07 06:22:24;;;;;;;2.20;1.73;;;;;;;;;;5090895;28;20494;-71
2022/09/07 06:24:51;;;;;;;3.40;1.70;;;;;;;;;;5094737;28;20517;-74
2022/09/07 06:27:18;;;;;;;2.10;1.90;;;;;;;;;;5095070;28;21006;-71
2022/09/07 06:29:46;;;;;;;3.17;2.03;;;;;;;;;;5094620;28;21058;-70
2022/09/07 06:32:14;;;;;;;2.10;1.70;;;;;;;;;;5093864;28;20547;-70
2022/09/07 06:34:41;;;;;;;2.30;2.10;;;;;;;;;;5094749;28;20460;-70
2022/09/07 06:37:09;;;;;;;2.50;1.70;;;;;;;;;;5094157;28;20523;-70
2022/09/07 06:39:36;;;;;;;2.13;1.50;;;;;;;;;;5094383;28;20919;-71
2022/09/07 06:42:04;;;;;;;1.60;1.50;;;;;;;;;;5093870;28;20483;-70
2022/09/07 06:44:31;;;;;;;1.70;1.60;;;;;;;;;;5094742;28;20433;-70
2022/09/07 06:46:58;;;;;;;2.27;2.03;;;;;;;;;;5093801;28;20436;-70
2022/09/07 06:49:27;;;;;;;2.33;1.73;;;;;;;;;;5094681;28;20484;-71
2022/09/07 06:51:54;;;;;;;3.13;2.00;;;;;;;;;;5093419;28;20468;-71
2022/09/07 06:54:21;;;;;;;2.53;1.63;;;;;;;;;;5094230;28;20552;-71
2022/09/07 06:56:49;;;;;;;1.50;1.40;;;;;;;;;;5094752;28;20468;-71
2022/09/07 06:59:16;;;;;;;2.20;2.00;;;;;;;;;;5093703;28;20487;-71
2022/09/07 07:01:43;;;;;;;1.60;1.30;;;;;;;;;;5093611;28;20523;-71
2022/09/07 07:04:10;;;;;;;5.20;2.23;;;;;;;;;;5093426;28;20528;-71
2022/09/07 07:06:39;;;;;;;2.30;1.70;;;;;;;;;;5094211;28;20513;-71
2022/09/07 07:09:08;;;;;;;2.20;1.60;;;;;;;;;;5093577;28;20555;-71
2022/09/07 07:11:36;;;;;;;3.37;2.30;;;;;;;;;;5093586;28;20432;-71
2022/09/07 07:14:03;;;;;;;1.97;1.57;;;;;;;;;;5093381;28;20429;-70
2022/09/07 07:16:30;;;;;;;1.67;1.53;;;;;;;;;;5093762;28;20528;-70
2022/09/07 07:18:58;;;;;;;2.57;1.73;;;;;;;;;;5079636;28;20441;-70
2022/09/07 07:21:25;;;;;;;2.60;1.70;;;18.00;99.90;;;;;;5093291;28;20524;-70
2022/09/07 07:23:53;;;;;;;1.73;1.30;;;21.60;99.90;;;;;;5093167;28;20536;-72
2022/09/07 07:26:25;;;;;;;1.70;1.30;;;21.50;99.90;;;;;;5093650;28;21040;-72
2022/09/07 07:28:53;;;;;;;2.17;1.70;;;21.70;12.00;;;;;;5093461;28;20473;-71
2022/09/07 07:31:23;;;;;;;1.60;1.50;;;21.80;1.00;;;;;;5093173;28;20912;-70
2022/09/07 07:33:51;;;;;;;1.50;1.40;;;;;;;;;;5093412;28;20445;-70
2022/09/07 07:36:19;;;;;;;3.50;2.00;;;;;;;;;;5093756;28;20506;-70
2022/09/07 07:38:47;;;;;;;6.07;1.40;;;;;;;;;;5093775;28;20524;-70
2022/09/07 07:41:17;;;;;;;2.30;1.87;;;;;;;;;;5092621;28;20515;-70
2022/09/07 07:43:44;;;;;;;1.80;1.27;;;;;;;;;;5093378;28;20527;-70
2022/09/07 07:46:13;;;;;;;5.57;1.63;;;;;;;;;;5092662;28;20535;-70
2022/09/07 07:48:40;;;;;;;4.80;1.90;;;;;;;;;;5093259;28;20508;-70
2022/09/07 07:51:09;;;;;;;3.10;1.63;;;;;;;;;;5092074;28;20998;-71
2022/09/07 07:53:37;;;;;;;3.40;1.60;;;;;;;;;;5093308;28;20443;-71
2022/09/07 07:56:05;;;;;;;1.50;1.30;;;;;;;;;;5092718;28;20473;-70
2022/09/07 07:58:34;;;;;;;2.80;1.47;;;;;;;;;;5093346;28;20487;-70
2022/09/07 08:01:02;;;;;;;1.93;1.43;;;;;;;;;;5092041;28;20448;-70
2022/09/07 08:03:30;;;;;;;5.37;2.27;;;;;;;;;;5093138;28;20440;-70
2022/09/07 08:05:57;;;;;;;4.07;1.73;;;;;;;;;;5092427;28;21023;-71
2022/09/07 08:08:25;;;;;;;5.17;1.80;;;;;;;;;;5093281;28;20437;-71
2022/09/07 08:10:52;;;;;;;2.17;1.60;;;;;;;;;;5091722;28;20971;-71
2022/09/07 08:13:20;;;;;;;2.07;1.60;;;;;;;;;;5092816;28;20445;-70
2022/09/07 08:15:48;;;;;;;2.70;1.60;;;;;;;;;;5092807;28;20460;-71
2022/09/07 08:18:16;;;;;;;3.00;2.80;;;;;;;;;;5092153;28;20528;-71
2022/09/07 08:20:44;;;;;;;2.83;1.60;;;;;;;;;;5078936;28;20927;-71
2022/09/07 08:23:11;;;;;;;1.50;1.40;;;;;;;;;;5092412;28;20879;-71
2022/09/07 08:25:38;;;;;;;2.70;1.57;;;;;;;;;;5092628;28;20535;-71
2022/09/07 08:28:06;;;;;;;2.90;1.80;;;;;;;;;;5091691;28;20474;-71
2022/09/07 08:30:33;;;;;;;3.47;1.30;;;;;;;;;;5092241;28;20564;-71
2022/09/07 08:33:01;;;;;;;1.70;1.60;;;;;;;;;;5091812;28;20444;-70
2022/09/07 08:35:28;;;;;;;1.70;1.40;;;;;;;;;;5092847;28;20449;-70
2022/09/07 08:37:55;;;;;;;2.80;1.37;;;;;;;;;;5091627;28;20437;-70
2022/09/07 08:40:23;;;;;;;4.27;1.97;;;;;;;;;;5092081;28;20536;-70
2022/09/07 08:42:57;;;;;;;2.17;1.40;;;;;;;;;;5093524;28;20806;-71
2022/09/07 08:45:28;;;;;;;4.63;2.00;;;;;;;;;;5082579;28;20436;-70
2022/09/07 08:47:55;;;;;;;3.00;2.00;;;;;;;;;;5090299;28;20433;-70
2022/09/07 08:50:27;;;;;;;4.93;1.50;;;;;;;;;;5091099;28;20468;-70
2022/09/07 08:52:56;;;;;;;2.87;2.67;;;;;;;;;;5090969;28;20429;-70
2022/09/07 08:55:27;;;;;;;2.40;1.40;;;;;;;;;;5091495;28;20443;-70
2022/09/07 08:57:57;;;;;;;5.00;1.93;;;;;;;;;;5078192;28;20448;-71
2022/09/07 09:00:24;;;;;;;1.80;1.50;;;;;;;;;;5090871;28;20448;-70
2022/09/07 09:02:51;;;;;;;2.00;1.67;;;;;;;;;;5102799;28;20433;-74
2022/09/07 09:05:27;;;;;;;1.90;1.70;;;;;;;;;;5083907;28;20456;-70
2022/09/07 09:08:02;;;;;;;2.10;1.47;;;;;;;;;;5090858;28;20440;-71
2022/09/07 09:10:33;;;;;;;2.20;1.50;;;;;;;;;;5090518;28;20472;-71
2022/09/07 09:13:03;;;;;;;1.87;1.67;;;;;;;;;;5090839;28;20441;-70
2022/09/07 09:15:43;;;;;;;2.40;1.37;;;;;;;;;;5091221;28;20448;-70
2022/09/07 09:18:24;;;;;;;1.70;1.60;;;;;;;;;;5090801;28;20425;-71
2022/09/07 09:20:54;;;;;;;2.20;1.77;;;;;;;;;;5091120;28;20444;-73
2022/09/07 09:23:25;;;;;;;2.30;1.47;;;;;;;;;;5087975;28;20461;-71
2022/09/07 09:25:54;;;;;;;2.10;1.60;;;;;;;;;;5090746;28;20852;-72
2022/09/07 09:28:21;;;;;;;3.53;1.60;;;;;;;;;;5091224;28;20529;-71
2022/09/07 09:30:49;;;;;;;3.80;1.33;;;;;;;;;;5090494;28;20487;-71
2022/09/07 09:33:17;;;;;;;2.83;2.07;;;;;;;;;;5090591;28;20902;-71
2022/09/07 09:35:45;;;;;;;2.27;1.60;;;;;;;;;;5090696;28;20455;-71
2022/09/07 09:38:33;;;;;;;1.83;1.63;;;;;;;;;;5094410;28;20444;-71
2022/09/07 09:41:03;;;;;;;2.90;2.07;;;;;;;;;;5084851;28;20519;-71
2022/09/07 09:43:35;;;;;;;3.20;2.07;;;;;;;;;;5090640;28;20864;-71
2022/09/07 09:46:03;;;;;;;2.80;1.90;;;;;;;;;;5090761;28;20790;-71
2022/09/07 09:48:32;;;;;;;2.77;1.37;;;;;;;;;;5090614;28;20541;-71
2022/09/07 09:51:00;;;;;;;1.77;1.43;;;;;;;;;;5089803;28;20835;-69
2022/09/07 09:53:31;;;;;;;2.23;1.90;;;;;;;;;;5090470;28;20916;-72
2022/09/07 09:56:00;;;;;;;1.60;1.50;;;;;;;;;;5090195;28;20523;-69
2022/09/07 09:58:30;;;;;;;1.93;1.43;;;;;;;;;;5089695;28;20448;-72
2022/09/07 10:01:00;;;;;;;2.37;1.40;;;;;;;;;;5089347;28;20441;-72
2022/09/07 10:03:27;;;;;;;2.73;1.57;;;;;;;;;;5090829;28;20733;-71
2022/09/07 10:05:54;;;;;;;1.60;1.50;;;;;;;;;;5089978;28;20451;-70
2022/09/07 10:08:24;;;;;;;3.10;1.90;;;;;;;;;;5090571;28;20455;-71
2022/09/07 10:10:55;;;;;;;1.73;1.40;;;;;;;;;;5089490;28;20476;-74
2022/09/07 10:13:25;;;;;;;4.13;1.97;;;;;;;;;;5090307;28;20523;-71
2022/09/07 10:15:52;;;;;;;2.10;1.90;;;;;;;;;;5089958;28;20443;-73
2022/09/07 10:18:23;;;;;;;4.23;1.70;;;;;;;;;;5090635;28;20448;-70
2022/09/07 10:20:50;;;;;;;3.27;1.73;;;;;;;;;;5090138;28;20452;-70
2022/09/07 10:23:22;;;;;;;2.57;2.03;;;;;;;;;;5090004;28;20468;-70
2022/09/07 10:25:49;;;;;;;5.03;1.80;;;;;;;;;;5089952;28;20440;-70
2022/09/07 10:28:21;;;;;;;1.90;1.50;;;;;;;;;;5090749;28;20522;-70
2022/09/07 10:30:54;;;;;;;4.20;1.90;;;;;;;;;;5089990;28;20546;-71
2022/09/07 10:33:25;;;;;;;1.80;1.70;;;;;;;;;;5090152;28;20756;-70
2022/09/07 10:35:55;;;;;;;1.93;1.73;;;;;;;;;;5090038;28;20448;-70
2022/09/07 10:38:23;;;;;;;3.63;1.53;;;;;;;;;;5076375;28;20447;-70
2022/09/07 10:40:53;;;;;;;2.60;1.53;;;;;;;;;;5088369;28;20458;-74
2022/09/07 10:43:29;;;;;;;2.10;1.50;;;;;;;;;;5080126;28;20451;-70
2022/09/07 10:46:07;;;;;;;2.90;2.00;;;;;;;;;;5088962;28;20459;-71
2022/09/07 10:48:38;;;;;;;2.10;1.30;;;;;;;;;;5089757;28;20463;-70
2022/09/07 10:51:10;;;;;;;2.20;1.60;;;;;;;;;;5090346;28;20476;-70
2022/09/07 10:53:43;;;;;;;1.63;1.43;;;;;;;;;;5089893;28;20970;-71
2022/09/07 10:56:11;;;;;;;2.10;1.90;;;;;;;;;;5089765;28;20440;-71
2022/09/07 10:58:44;;;;;;;5.83;2.10;;;;;;;;;;5089862;28;20439;-71
2022/09/07 11:01:16;;;;;;;3.47;1.50;;;;;;;;;;5085308;28;20441;-70
2022/09/07 11:04:02;;;;;;;4.73;1.70;;;;;;;;;;5087095;28;20447;-71
2022/09/07 11:06:32;;;;;;;2.90;2.13;;;;;;;;;;5089719;28;20920;-71
2022/09/07 11:09:07;;;;;;;2.40;1.53;;;;;;;;;;5090875;28;20440;-70
2022/09/07 11:11:38;;;;;;;2.13;1.93;;;;;;;;;;5092998;28;20471;-70
2022/09/07 11:14:07;;;;;;;3.63;2.37;;;;;;;;;;5093068;28;20432;-70
2022/09/07 11:16:38;;;;;;;2.10;1.90;;;;;;;;;;5093227;28;20868;-70
2022/09/07 11:19:07;;;;;;;2.40;1.77;;;;;;;;;;5093064;28;20443;-71
2022/09/07 11:21:36;;;;;;;5.33;2.37;;;;;;;;;;5083053;28;20955;-70
2022/09/07 11:24:08;;;;;;;2.70;2.40;;;;;;;;;;5092691;28;20440;-71
2022/09/07 11:26:38;;;;;;;2.37;1.90;;;;;;;;;;5092816;28;20464;-71
2022/09/07 11:29:11;;;;;;;2.10;1.90;;;;;;;;;;5092902;28;20444;-70
2022/09/07 11:31:42;;;;;;;2.73;1.70;;;;;;;;;;5092638;28;20503;-70
2022/09/07 11:34:14;;;;;;;1.50;1.33;;;;;;;;;;5092476;28;20881;-71
2022/09/07 11:36:45;;;;;;;3.00;1.90;;;;;;;;;;5092962;28;20479;-70
2022/09/07 11:39:14;;;;;;;1.93;1.60;;;;;;;;;;5091260;28;20531;-71
2022/09/07 11:41:44;;;;;;;3.23;1.87;;;;;;;;;;5092148;28;20810;-71
2022/09/07 11:44:13;;;;;;;2.07;1.47;;;;;;;;;;5092474;28;20634;-71
2022/09/07 11:46:44;;;;;;;6.90;3.00;;;;;;;;;;5092824;28;20436;-70
2022/09/07 11:49:14;;;;;;;1.50;1.40;;;;;;;;;;5092192;28;20445;-71
2022/09/07 11:51:43;;;;;;;2.40;1.87;;;;;;;;;;5092550;28;20472;-70
2022/09/07 11:54:19;;;;;;;2.83;1.93;;;;;;;;;;5092205;28;20440;-70
2022/09/07 11:56:51;;;;;;;1.70;1.40;;;;;;;;;;5092999;28;20432;-70
2022/09/07 11:59:24;;;;;;;2.17;1.97;;;;;;;;;;5092719;28;20440;-71
2022/09/07 12:01:58;;;;;;;2.50;1.77;;;;;;;;;;5091969;28;20934;-71
2022/09/07 12:04:34;;;;;;;2.93;1.80;;;;;;;;;;5080139;28;20927;-71
2022/09/07 12:07:19;;;;;;;3.97;2.33;;;;;;;;;;5092282;28;20531;-71
2022/09/07 12:09:51;;;;;;;1.50;1.40;;;;;;;;;;5092050;28;20441;-71
2022/09/07 12:12:33;;;;;;;3.10;2.07;;;;;;;;;;5092185;28;20486;-71
2022/09/07 12:15:09;;;;;;;2.33;2.07;;;;;;;;;;5089141;28;20456;-70
2022/09/07 12:17:43;;;;;;;2.70;2.00;;;;;;;;;;5092343;28;20439;-72
2022/09/07 12:20:17;;;;;;;2.93;1.63;;;;;;;;;;5090802;28;20451;-71
2022/09/07 12:23:01;;;;;;;2.60;1.90;;;;;;;;;;5092034;28;20444;-70
2022/09/07 12:25:29;;;;;;;4.37;1.93;;;;;;;;;;5079347;28;20444;-71
2022/09/07 12:27:56;;;;;;;1.67;1.30;;;;;;;;;;5091775;28;20563;-70
2022/09/07 12:30:51;;;;;;;1.53;1.43;;;;;;;;;;5091582;28;20828;-71
2022/09/07 12:33:36;;;;;;;2.27;1.60;;;;;;;;;;5092435;28;20276;-71
2022/09/07 12:36:18;;;;;;;2.53;1.90;;;;;;;;;;5091776;28;20452;-71
2022/09/07 12:39:01;;;;;;;1.70;1.60;;;;;;;;;;5092023;28;20472;-71
2022/09/07 12:41:43;;;;;;;2.13;1.93;;;;;;;;;;5090191;28;20464;-71
2022/09/07 12:44:16;;;;;;;1.87;1.73;;;;;;;;;;5099493;28;20443;-70
2022/09/07 12:46:44;;;;;;;1.73;1.63;;;;;;;;;;5088239;28;20527;-70
2022/09/07 12:49:27;;;;;;;3.93;1.40;;;;;;;;;;5090975;28;20919;-71
2022/09/07 12:51:58;;;;;;;7.20;1.63;;;;;;;;;;5090951;28;20479;-71
2022/09/07 12:54:28;;;;;;;1.57;1.40;;;;;;;;;;5091873;28;20785;-71
2022/09/07 12:56:58;;;;;;;2.73;1.80;;;;;;;;;;5091244;28;20493;-70
2022/09/07 12:59:35;;;;;;;5.40;1.50;;;;;;;;;;5093908;28;20198;-71
2022/09/07 13:02:12;;;;;;;2.90;1.40;;;;;;;;;;5096338;28;20202;-71
2022/09/07 13:04:48;;;;;;;1.53;1.43;;;;;;;;;;5081389;28;20217;-71
2022/09/07 13:07:31;;;;;;;1.47;1.37;;;;;;;;;;5091013;28;20680;-71
2022/09/07 13:09:59;;;;;;;1.67;1.20;;;;;;;;;;5090498;28;20195;-71
2022/09/07 13:12:32;;;;;;;1.47;1.37;;;;;;;;;;5085859;28;20226;-70
2022/09/07 13:15:00;;;;;;;2.17;1.30;;;;;;;;;;5091137;28;20543;-71
2022/09/07 13:17:41;;;;;;;3.73;1.90;;;;;;;;;;5090998;28;20202;-74
2022/09/07 13:20:29;;;;;;;2.67;1.50;;;;;;;;;;5086504;28;20689;-71
2022/09/07 13:23:20;;;;;;;3.00;1.70;;;;;;;;;;5090601;28;20436;-72
2022/09/07 13:25:51;;;;;;;1.50;1.40;;;;;;;;;;5081004;28;20205;-71
2022/09/07 13:28:26;;;;;;;1.73;1.60;;;;;;;;;;5091301;28;20205;-71
2022/09/07 13:30:58;;;;;;;2.00;1.37;;;;;;;;;;5090272;28;20193;-71
2022/09/07 13:33:49;;;;;;;1.60;1.50;;;;;;;;;;5089855;28;20230;-70
2022/09/07 13:36:20;;;;;;;1.90;1.50;;;;;;;;;;5089914;28;20236;-70
2022/09/07 13:38:49;;;;;;;1.53;1.43;;;;;;;;;;5080962;28;20206;-74
2022/09/07 13:41:17;;;;;;;2.67;2.33;;;;;;;;;;5089895;28;20198;-71
2022/09/07 13:43:48;;;;;;;1.87;1.70;;;;;;;;;;5090685;28;20553;-71
2022/09/07 13:46:25;;;;;;;2.10;1.37;;;;;;;;;;5090661;28;20194;-70
2022/09/07 13:48:56;;;;;;;1.50;1.40;;;;;;;;;;5090472;28;20239;-71
2022/09/07 13:51:25;;;;;;;1.93;1.40;;;;;;;;;;5090604;28;20225;-71
2022/09/07 13:54:01;;;;;;;1.73;1.43;;;;;;;;;;5085151;28;20194;-71
2022/09/07 13:56:34;;;;;;;3.03;1.50;;;;;;;;;;5090883;28;20201;-72
2022/09/07 13:59:11;;;;;;;1.47;1.37;;;;;;;;;;5090705;28;20534;-70
2022/09/07 14:01:43;;;;;;;1.37;1.20;;;;;;;;;;5089866;28;20189;-70
2022/09/07 14:04:20;;;;;;;2.93;2.30;;;;;;;;;;5089882;28;20209;-71
2022/09/07 14:06:47;;;;;;;3.77;1.53;;;;;;;;;;5090963;28;20201;-71
2022/09/07 14:09:15;;;;;;;1.80;1.37;;;;;;;;;;5090199;28;20444;-70
2022/09/07 14:11:43;;;;;;;1.47;1.20;;;;;;;;;;5086193;28;20673;-71
2022/09/07 14:14:16;;;;;;;2.50;1.60;;;;;;;;;;5090104;28;20209;-70
2022/09/07 14:16:44;;;;;;;1.87;1.40;;;;;;;;;;5090296;28;20284;-70
2022/09/07 14:19:17;;;;;;;1.47;1.37;;;;;;;;;;5089924;28;20370;-70
2022/09/07 14:21:53;;;;;;;1.83;1.40;;;;;;;;;;5089887;28;20206;-70
2022/09/07 14:24:23;;;;;;;1.33;1.17;;;;;;;;;;5090716;28;20200;-70
2022/09/07 14:26:51;;;;;;;1.90;1.40;;;;;;;;;;5090130;28;20466;-70
2022/09/07 14:29:24;;;;;;;3.43;1.73;;;;;;;;;;5085117;28;20296;-70
2022/09/07 14:31:52;;;;;;;2.13;1.63;;;;;;;;;;5089825;28;20213;-74
2022/09/07 14:34:20;;;;;;;1.40;1.30;;;;;;;;;;5090652;28;20202;-70
2022/09/07 14:36:47;;;;;;;1.80;1.67;;;;;;;;;;5079607;28;20199;-73
2022/09/07 14:39:16;;;;;;;1.43;1.33;;;;;;;;;;5090246;28;20220;-71
2022/09/07 14:41:43;;;;;;;2.30;1.53;;;;;;;;;;5089692;28;20642;-71
2022/09/07 14:44:25;;;;;;;6.00;1.70;;;;;;;;;;5091204;28;20194;-71
2022/09/07 14:46:54;;;;;;;3.23;2.00;;;;;;;;;;5083388;28;20194;-71
2022/09/07 14:49:22;;;;;;;1.60;1.50;;;;;;;;;;5094196;28;20440;-71
2022/09/07 14:51:49;;;;;;;2.80;1.27;;;;;;;;;;5093735;28;20896;-71